createdAt,value
2017-02-21T00:03:28.842Z,1004.7
2017-02-21T00:13:43.070Z,1004.7
2017-02-21T00:23:57.080Z,1004.7
2017-02-21T00:34:11.497Z,1004.6
2017-02-21T00:44:26.112Z,1004.9
2017-02-21T00:54:40.696Z,1004.7
2017-02-21T01:04:54.557Z,1004.6
2017-02-21T01:15:07.875Z,1004.6
2017-02-21T01:25:22.261Z,1004.7
2017-02-21T01:35:36.177Z,1004.6
2017-02-21T01:45:50.178Z,1004.6
2017-02-21T01:56:04.672Z,1004.6
2017-02-21T02:06:18.280Z,1004.6
2017-02-21T02:16:32.572Z,1004.6
2017-02-21T02:26:46.709Z,1004.6
2017-02-21T02:37:00.248Z,1004.5
2017-02-21T02:47:14.635Z,1004.6
2017-02-21T02:57:27.902Z,1004.6
2017-02-21T03:07:42.011Z,1004.5
2017-02-21T03:17:55.749Z,1004.5
2017-02-21T03:28:10.827Z,1004.7
2017-02-21T03:38:27.233Z,1004.4
2017-02-21T03:48:39.012Z,1004.8
2017-02-21T03:58:53.306Z,1004.8
2017-02-21T04:09:08.016Z,1004.8
2017-02-21T04:19:23.120Z,1004.7
2017-02-21T04:29:37.666Z,1004.7
2017-02-21T04:39:52.032Z,1004.6
2017-02-21T04:50:06.955Z,1004.9
2017-02-21T05:00:20.340Z,1005.2
2017-02-21T05:10:35.125Z,1005.1
2017-02-21T05:20:48.449Z,1005.1
2017-02-21T05:31:02.663Z,1005.2
2017-02-21T05:41:17.355Z,1005.2
2017-02-21T05:51:31.728Z,1005.2
2017-02-21T06:01:44.979Z,1005.5
2017-02-21T06:11:59.364Z,1005.5
2017-02-21T06:22:12.651Z,1005.6
2017-02-21T06:32:26.584Z,1005.7
2017-02-21T06:42:39.668Z,1005.9
2017-02-21T06:52:53.281Z,1006
2017-02-21T07:03:07.652Z,1005.9
2017-02-21T07:13:22.204Z,1006
2017-02-21T07:23:37.201Z,1006.2
2017-02-21T07:33:51.935Z,1006.2
2017-02-21T07:44:06.696Z,1006.2
2017-02-21T07:54:20.720Z,1006.2
2017-02-21T08:04:34.274Z,1006.4
2017-02-21T08:25:03.949Z,1006.6
2017-02-21T08:35:18.740Z,1006.8
2017-02-21T08:45:31.947Z,1006.9
2017-02-21T08:55:45.169Z,1006.9
2017-02-21T09:05:58.670Z,1007
2017-02-21T09:16:12.282Z,1007.1
2017-02-21T09:26:26.856Z,1007.3
2017-02-21T09:36:41.132Z,1007.4
2017-02-21T09:46:55.008Z,1007.6
2017-02-21T09:57:09.136Z,1007.6
2017-02-21T10:07:22.398Z,1007.6
2017-02-21T10:17:36.580Z,1007.7
2017-02-21T10:27:50.672Z,1007.6
2017-02-21T10:38:04.942Z,1007.6
2017-02-21T10:48:18.259Z,1007.7
2017-02-21T10:58:31.908Z,1007.8
2017-02-21T11:08:45.758Z,1007.7
2017-02-21T11:19:00.442Z,1007.7
2017-02-21T11:29:14.607Z,1007.7
2017-02-21T11:39:27.925Z,1007.9
2017-02-21T11:49:42.624Z,1007.6
2017-02-21T11:59:56.219Z,1007.8
2017-02-21T12:10:10.182Z,1007.5
2017-02-21T12:20:23.783Z,1007.5
2017-02-21T12:30:38.475Z,1007.4
2017-02-21T12:40:52.078Z,1007.4
2017-02-21T12:51:05.996Z,1007.3
2017-02-21T13:01:20.393Z,1007.4
2017-02-21T13:11:35.241Z,1007.3
2017-02-21T13:21:48.678Z,1007.4
2017-02-21T13:32:03.928Z,1007.6
2017-02-21T13:42:17.554Z,1007.4
2017-02-21T13:52:32.536Z,1007.4
2017-02-21T14:02:47.063Z,1007.6
2017-02-21T14:13:01.193Z,1007.6
2017-02-21T14:23:15.403Z,1007.6
2017-02-21T14:33:29.006Z,1007.5
2017-02-21T14:43:43.008Z,1007.4
2017-02-21T14:53:58.258Z,1007.4
2017-02-21T15:04:12.417Z,1007.3
2017-02-21T15:14:25.769Z,1007.2
2017-02-21T15:24:39.812Z,1007.1
2017-02-21T15:34:54.475Z,1007
2017-02-21T15:45:08.181Z,1006.9
2017-02-21T15:55:22.124Z,1006.9
2017-02-21T16:05:35.749Z,1006.9
2017-02-21T16:15:49.027Z,1007
2017-02-21T16:26:04.124Z,1006.8
2017-02-21T16:36:18.274Z,1006.8
2017-02-21T16:46:31.791Z,1006.9
2017-02-21T16:56:46.971Z,1006.8
2017-02-21T17:07:00.266Z,1006.7
2017-02-21T17:17:15.095Z,1006.8
2017-02-21T17:27:29.696Z,1006.8
2017-02-21T17:37:42.919Z,1006.8
2017-02-21T17:47:57.149Z,1006.7
2017-02-21T17:58:12.145Z,1006.7
2017-02-21T18:08:25.715Z,1006.6
2017-02-21T18:18:40.317Z,1006.4
2017-02-21T18:28:54.068Z,1006.3
2017-02-21T18:39:08.452Z,1006.3
2017-02-21T18:49:22.799Z,1006
2017-02-21T18:59:36.593Z,1005.9
2017-02-21T19:09:51.130Z,1005.9
2017-02-21T19:20:04.491Z,1005.9
2017-02-21T19:30:18.567Z,1005.8
2017-02-21T19:40:32.745Z,1005.7
2017-02-21T19:50:47.687Z,1005.5
2017-02-21T20:01:01.400Z,1005.4
2017-02-21T20:11:15.027Z,1005.3
2017-02-21T20:21:28.501Z,1005.2
2017-02-21T20:31:42.180Z,1005.1
2017-02-21T20:41:56.855Z,1004.9
2017-02-21T20:52:11.542Z,1004.8
2017-02-21T21:02:25.586Z,1004.7
2017-02-21T21:12:40.243Z,1004.6
2017-02-21T21:22:53.560Z,1004.4
2017-02-21T21:33:07.714Z,1004.1
2017-02-21T21:43:21.668Z,1003.9
2017-02-21T21:53:35.591Z,1003.7
2017-02-21T22:03:49.307Z,1003.4
2017-02-21T22:14:02.558Z,1003.2
2017-02-21T22:24:16.328Z,1003.1
2017-02-21T22:34:29.472Z,1002.9
2017-02-21T22:44:43.572Z,1002.8
2017-02-21T22:54:58.341Z,1002.6
2017-02-21T23:05:12.774Z,1002.4
2017-02-21T23:15:26.324Z,1002.1
2017-02-21T23:25:40.124Z,1002
2017-02-21T23:35:54.521Z,1001.8
2017-02-21T23:46:07.632Z,1001.5
2017-02-21T23:56:21.340Z,1001.4
